Allen, Indiana
Current Conditions -  °F | °C
As of 5:55 PM on Tuesday 21 Oct 2014 (Local Time) from KGWB Reporting Station
Overcast Overcast  
Wind Chill:   Ceiling: 3200
Heat Index:   Visibility: 10mi
Dew Point:   Wind: 9mph
Humidity: 62%   Direction: 360°N
Pressure: 30.15"   Gusts: NA
Location:  41.4608°N, 85.2531°W
Report Text: KGWB 212155Z AUTO 36008KT 10SM OVC032 09/02 A3015 RMK AO2
Loading
Personal Weather Stations






























Interactive Weather Map
Tropical Storm Tracking
New forecast layout! Learn more

10-Day Weather Forecast

Advertisements
Track Severe Weather on mobile